createdAt,value
2023-02-03T00:04:25.137Z,16.90
2023-02-03T00:09:26.571Z,30.38
2023-02-03T00:14:28.002Z,35.50
2023-02-03T00:19:29.413Z,32.00
2023-02-03T00:24:30.830Z,24.58
2023-02-03T00:29:32.394Z,24.95
2023-02-03T00:34:33.779Z,24.42
2023-02-03T00:39:38.273Z,21.85
2023-02-03T00:44:39.672Z,16.23
2023-02-03T00:49:41.142Z,16.02
2023-02-03T00:54:42.674Z,15.30
2023-02-03T00:59:44.120Z,15.43
2023-02-03T01:04:45.584Z,18.23
2023-02-03T01:09:47.049Z,28.10
2023-02-03T01:14:48.461Z,28.15
2023-02-03T01:19:51.417Z,23.77
2023-02-03T01:24:52.872Z,22.35
2023-02-03T01:29:54.353Z,19.65
2023-02-03T01:34:55.819Z,22.15
2023-02-03T01:39:57.766Z,15.15
2023-02-03T01:44:59.265Z,21.17
2023-02-03T01:50:16.146Z,19.60
2023-02-03T01:55:21.053Z,18.52
2023-02-03T02:00:22.503Z,19.30
2023-02-03T02:05:32.241Z,17.83
2023-02-03T02:10:33.852Z,18.63
2023-02-03T02:15:50.454Z,16.73
2023-02-03T02:21:22.164Z,16.98
2023-02-03T02:26:41.912Z,23.25
2023-02-03T02:32:06.195Z,15.27
2023-02-03T02:37:12.782Z,14.95
2023-02-03T02:42:32.204Z,15.82
2023-02-03T02:47:33.799Z,18.60
2023-02-03T02:52:38.943Z,13.95
2023-02-03T02:57:42.534Z,16.85
2023-02-03T03:02:43.968Z,15.93
2023-02-03T03:07:51.540Z,19.08
2023-02-03T03:12:56.488Z,13.82
2023-02-03T03:18:27.969Z,16.05
2023-02-03T03:23:35.787Z,15.00
2023-02-03T03:28:49.304Z,23.17
2023-02-03T03:33:50.770Z,23.42
2023-02-03T03:39:04.347Z,23.48
2023-02-03T03:44:10.552Z,26.17
2023-02-03T03:49:13.700Z,23.35
2023-02-03T03:54:20.367Z,23.23
2023-02-03T03:59:24.197Z,17.20
2023-02-03T04:04:26.308Z,16.42
2023-02-03T04:09:28.742Z,21.65
2023-02-03T04:14:35.279Z,32.83
2023-02-03T04:19:36.738Z,22.30
2023-02-03T04:24:38.217Z,20.23
2023-02-03T04:29:39.632Z,17.08
2023-02-03T04:34:41.210Z,13.07
2023-02-03T04:39:42.690Z,10.45
2023-02-03T04:44:44.369Z,11.25
2023-02-03T04:49:45.818Z,9.13
2023-02-03T04:54:47.491Z,8.70
2023-02-03T04:59:48.981Z,11.18
2023-02-03T05:04:50.382Z,11.57
2023-02-03T05:09:51.775Z,9.02
2023-02-03T05:14:53.251Z,9.98
2023-02-03T05:19:54.665Z,10.95
2023-02-03T05:24:56.118Z,12.50
2023-02-03T05:29:57.574Z,10.60
2023-02-03T05:34:59.026Z,14.63
2023-02-03T05:40:20.406Z,15.95
2023-02-03T05:45:21.823Z,14.23
2023-02-03T05:50:23.405Z,14.77
2023-02-03T05:55:24.836Z,9.70
2023-02-03T06:00:26.520Z,8.38
2023-02-03T06:05:29.569Z,12.95
2023-02-03T06:10:30.992Z,22.65
2023-02-03T06:15:32.393Z,15.35
2023-02-03T06:20:33.832Z,25.65
2023-02-03T06:25:35.295Z,21.83
2023-02-03T06:30:37.091Z,14.40
2023-02-03T06:35:38.619Z,19.00
2023-02-03T06:40:40.069Z,10.20
2023-02-03T06:45:41.755Z,14.70
2023-02-03T06:50:43.272Z,14.30
2023-02-03T06:55:44.743Z,21.80
2023-02-03T07:00:46.144Z,15.82
2023-02-03T07:05:47.585Z,13.25
2023-02-03T07:10:53.753Z,10.15
2023-02-03T07:15:55.237Z,10.20
2023-02-03T07:20:56.664Z,8.80
2023-02-03T07:26:02.975Z,7.55
2023-02-03T07:31:04.872Z,6.40
2023-02-03T07:36:07.921Z,9.82
2023-02-03T07:41:09.359Z,12.45
2023-02-03T07:46:10.900Z,6.97
2023-02-03T07:51:12.380Z,6.70
2023-02-03T07:56:13.891Z,8.50
2023-02-03T08:01:16.858Z,8.65
2023-02-03T08:06:18.536Z,9.90
2023-02-03T08:11:19.947Z,8.23
2023-02-03T08:16:21.454Z,9.93
2023-02-03T08:21:22.910Z,10.15
2023-02-03T08:26:24.356Z,8.90
2023-02-03T08:31:25.877Z,9.40
2023-02-03T08:36:42.588Z,9.27
2023-02-03T08:41:44.017Z,26.38
2023-02-03T08:46:49.174Z,8.23
2023-02-03T08:51:51.018Z,9.90
2023-02-03T08:56:53.321Z,40.97
2023-02-03T09:01:55.084Z,28.45
2023-02-03T09:06:56.783Z,16.13
2023-02-03T09:12:02.291Z,10.82
2023-02-03T09:17:05.821Z,8.93
2023-02-03T09:22:07.591Z,11.13
2023-02-03T09:27:09.191Z,10.30
2023-02-03T09:32:10.812Z,19.63
2023-02-03T09:37:12.378Z,29.73
2023-02-03T09:42:51.149Z,22.15
2023-02-03T09:47:55.441Z,12.97
2023-02-03T09:52:58.889Z,17.92
2023-02-03T09:58:14.534Z,13.10
2023-02-03T10:03:41.607Z,11.50
2023-02-03T10:09:19.038Z,13.50
2023-02-03T10:14:40.080Z,20.52
2023-02-03T10:20:00.572Z,17.48
2023-02-03T10:25:20.843Z,16.65
2023-02-03T10:30:24.186Z,15.75
2023-02-03T10:35:36.426Z,12.57
2023-02-03T10:40:37.903Z,14.50
2023-02-03T10:45:39.966Z,16.27
2023-02-03T10:50:46.875Z,14.80
2023-02-03T10:55:52.304Z,15.18
2023-02-03T11:01:13.658Z,14.10
2023-02-03T11:06:17.488Z,14.10
2023-02-03T11:11:28.287Z,15.98
2023-02-03T11:16:32.215Z,12.95
2023-02-03T11:21:43.420Z,14.02
2023-02-03T11:26:47.721Z,14.65
2023-02-03T11:31:53.127Z,12.48
2023-02-03T11:36:55.173Z,11.57
2023-02-03T11:41:56.922Z,13.52
2023-02-03T11:47:03.759Z,17.88
2023-02-03T11:52:17.270Z,14.80
2023-02-03T11:57:34.719Z,9.50
2023-02-03T12:02:51.470Z,6.65
2023-02-03T12:08:09.821Z,5.38
2023-02-03T12:13:28.221Z,6.30
2023-02-03T12:19:07.387Z,7.43
2023-02-03T12:24:40.863Z,10.48
2023-02-03T12:29:49.904Z,5.28
2023-02-03T12:35:01.778Z,3.67
2023-02-03T12:40:14.280Z,1.95
2023-02-03T12:45:21.506Z,1.65
2023-02-03T12:50:35.278Z,1.38
2023-02-03T12:55:43.906Z,2.33
2023-02-03T13:00:51.817Z,2.88
2023-02-03T13:06:16.247Z,2.83
2023-02-03T13:11:24.740Z,1.75
2023-02-03T13:16:35.922Z,2.45
2023-02-03T13:21:37.561Z,2.80
2023-02-03T13:27:09.211Z,6.15
2023-02-03T13:32:25.827Z,16.95
2023-02-03T13:38:11.386Z,24.20
2023-02-03T13:43:36.925Z,22.58
2023-02-03T13:48:45.370Z,22.13
2023-02-03T13:53:48.670Z,16.55
2023-02-03T13:59:03.595Z,9.50
2023-02-03T14:04:26.692Z,14.25
2023-02-03T14:09:30.945Z,16.75
2023-02-03T14:14:35.480Z,8.98
2023-02-03T14:19:52.038Z,7.88
2023-02-03T14:24:56.559Z,10.30
2023-02-03T14:30:09.330Z,6.50
2023-02-03T14:35:20.333Z,10.95
2023-02-03T14:40:51.073Z,8.98
2023-02-03T14:46:14.079Z,10.35
2023-02-03T14:51:36.771Z,9.50
2023-02-03T14:57:04.899Z,11.50
2023-02-03T15:02:06.552Z,8.40
2023-02-03T15:07:08.053Z,10.75
2023-02-03T15:12:22.603Z,15.10
2023-02-03T15:17:26.902Z,10.38
2023-02-03T15:22:30.720Z,16.73
2023-02-03T15:27:33.247Z,11.88
2023-02-03T15:32:41.009Z,14.80
2023-02-03T15:37:44.332Z,19.70
2023-02-03T15:42:57.242Z,11.95
2023-02-03T15:48:07.766Z,14.00
2023-02-03T15:53:20.705Z,14.93
2023-02-03T15:58:28.838Z,13.82
2023-02-03T16:03:40.566Z,12.73
2023-02-03T16:08:49.379Z,13.88
2023-02-03T16:13:51.156Z,16.38
2023-02-03T16:18:56.280Z,7.75
2023-02-03T16:23:59.298Z,12.35
2023-02-03T16:29:22.197Z,11.02
2023-02-03T16:34:42.292Z,7.85
2023-02-03T16:40:02.317Z,8.82
2023-02-03T16:45:30.271Z,6.72
2023-02-03T16:50:53.114Z,7.03
2023-02-03T16:55:56.873Z,9.38
2023-02-03T17:01:00.809Z,8.10
2023-02-03T17:06:05.180Z,9.05
2023-02-03T17:11:15.639Z,9.10
2023-02-03T17:16:23.080Z,10.95
2023-02-03T17:21:27.972Z,12.63
2023-02-03T17:26:29.459Z,10.95
2023-02-03T17:31:31.608Z,13.00
2023-02-03T17:36:33.161Z,9.63
2023-02-03T17:57:34.357Z,11.27
2023-02-03T18:02:36.082Z,11.32
2023-02-03T18:07:37.535Z,14.20
2023-02-03T18:12:38.995Z,11.63
2023-02-03T18:17:40.675Z,13.20
2023-02-03T18:22:44.100Z,11.75
2023-02-03T18:27:45.749Z,12.43
2023-02-03T18:32:51.130Z,12.02
2023-02-03T18:37:53.264Z,15.20
2023-02-03T18:42:56.251Z,13.68
2023-02-03T18:47:57.673Z,15.75
2023-02-03T18:52:59.210Z,13.20
2023-02-03T18:58:00.640Z,13.35
2023-02-03T19:03:02.102Z,12.77
2023-02-03T19:08:03.587Z,11.07
2023-02-03T19:13:05.026Z,9.90
2023-02-03T19:18:06.467Z,9.10
2023-02-03T19:23:08.594Z,13.93
2023-02-03T19:28:17.427Z,12.80
2023-02-03T19:33:21.607Z,12.25
2023-02-03T19:38:23.067Z,11.15
2023-02-03T19:43:24.820Z,12.70
2023-02-03T19:48:26.496Z,12.90
2023-02-03T19:53:28.057Z,10.45
2023-02-03T19:58:30.671Z,16.73
2023-02-03T20:03:32.654Z,12.15
2023-02-03T20:08:34.155Z,10.05
2023-02-03T20:13:35.765Z,12.00
2023-02-03T20:18:37.226Z,13.75
2023-02-03T20:23:38.641Z,10.27
2023-02-03T20:28:40.191Z,11.75
2023-02-03T20:33:41.691Z,9.00
2023-02-03T20:38:43.099Z,8.55
2023-02-03T20:43:45.263Z,8.80
2023-02-03T20:48:47.062Z,8.30
2023-02-03T20:53:50.031Z,7.47
2023-02-03T20:58:51.672Z,7.03
2023-02-03T21:04:12.041Z,10.48
2023-02-03T21:09:16.227Z,9.13
2023-02-03T21:14:20.893Z,9.52
2023-02-03T21:19:33.529Z,9.50
2023-02-03T21:24:37.943Z,14.68
2023-02-03T21:29:40.486Z,11.27
2023-02-03T21:34:45.113Z,24.13
2023-02-03T21:39:47.736Z,21.95
2023-02-03T21:44:49.168Z,19.10
2023-02-03T21:49:50.621Z,14.68
2023-02-03T21:54:52.033Z,13.50
2023-02-03T21:59:53.457Z,11.52
2023-02-03T22:04:55.209Z,9.10
2023-02-03T22:09:56.614Z,8.85
2023-02-03T22:14:58.009Z,8.25
2023-02-03T22:19:59.460Z,15.45
2023-02-03T22:25:00.903Z,13.43
2023-02-03T22:30:02.334Z,11.70
2023-02-03T22:35:03.843Z,15.43
2023-02-03T22:40:05.829Z,12.18
2023-02-03T22:45:08.123Z,14.60
2023-02-03T22:50:11.950Z,11.55
2023-02-03T22:55:13.380Z,10.50
2023-02-03T23:00:20.406Z,10.23
2023-02-03T23:05:22.451Z,8.05
2023-02-03T23:10:26.142Z,10.20
2023-02-03T23:15:28.513Z,9.45
2023-02-03T23:20:30.373Z,9.88
2023-02-03T23:25:31.981Z,8.00
2023-02-03T23:30:34.141Z,10.60
2023-02-03T23:35:47.422Z,7.75
2023-02-03T23:40:48.998Z,4.72
2023-02-03T23:45:50.478Z,3.17
2023-02-03T23:50:51.890Z,9.35
2023-02-03T23:55:53.295Z,2.28
